createdAt,value
2017-11-26T00:00:00.891Z,100761.80
2017-11-26T00:02:28.628Z,100770.66
2017-11-26T00:04:55.216Z,100761.64
2017-11-26T00:07:21.043Z,100764.13
2017-11-26T00:09:47.253Z,100762.31
2017-11-26T00:12:14.061Z,100769.83
2017-11-26T00:14:41.592Z,100761.22
2017-11-26T00:17:09.612Z,100765.02
2017-11-26T00:19:35.417Z,100762.28
2017-11-26T00:22:03.493Z,100767.72
2017-11-26T00:24:31.520Z,100774.72
2017-11-26T00:26:59.256Z,100757.73
2017-11-26T00:29:25.695Z,100751.03
2017-11-26T00:31:52.334Z,100741.78
2017-11-26T00:34:18.654Z,100739.88
2017-11-26T00:36:48.429Z,100744.75
2017-11-26T00:39:14.907Z,100743.06
2017-11-26T00:41:47.805Z,100747.23
2017-11-26T00:44:13.613Z,100753.64
2017-11-26T00:46:39.455Z,100761.09
2017-11-26T00:49:06.009Z,100751.75
2017-11-26T00:51:32.466Z,100758.11
2017-11-26T00:54:01.347Z,100756.58
2017-11-26T00:56:27.773Z,100754.83
2017-11-26T00:58:54.865Z,100756.22
2017-11-26T01:01:21.600Z,100754.55
2017-11-26T01:03:52.134Z,100754.92
2017-11-26T01:08:52.304Z,100762.05
2017-11-26T01:11:21.342Z,100767.77
2017-11-26T01:13:48.812Z,100763.73
2017-11-26T01:16:23.004Z,100768.48
2017-11-26T01:18:49.308Z,100762.42
2017-11-26T01:21:17.505Z,100768.93
2017-11-26T01:23:43.318Z,100763.61
2017-11-26T01:26:10.861Z,100755.44
2017-11-26T01:28:41.395Z,100759.47
2017-11-26T01:31:07.849Z,100750.19
2017-11-26T01:33:34.538Z,100753.61
2017-11-26T01:36:03.569Z,100763.39
2017-11-26T01:38:29.373Z,100760.03
2017-11-26T01:40:56.290Z,100760.70
2017-11-26T01:43:28.068Z,100758.36
2017-11-26T01:45:54.666Z,100752.96
2017-11-26T01:48:20.495Z,100747.85
2017-11-26T01:50:48.394Z,100754.72
2017-11-26T01:53:14.936Z,100757.25
2017-11-26T01:55:42.409Z,100759.95
2017-11-26T01:58:08.874Z,100763.61
2017-11-26T02:00:46.580Z,100766.44
2017-11-26T02:03:14.831Z,100766.90
2017-11-26T02:05:42.432Z,100769.86
2017-11-26T02:08:08.258Z,100764.78
2017-11-26T02:10:36.321Z,100767.90
2017-11-26T02:13:04.577Z,100767.84
2017-11-26T02:15:31.717Z,100768.78
2017-11-26T02:18:01.142Z,100772.56
2017-11-26T02:20:28.161Z,100768.20
2017-11-26T02:22:54.761Z,100764.63
2017-11-26T02:25:23.226Z,100763.30
2017-11-26T02:27:51.702Z,100764.09
2017-11-26T02:30:17.539Z,100766.60
2017-11-26T02:32:55.889Z,100771.31
2017-11-26T02:35:34.650Z,100777.66
2017-11-26T02:38:03.443Z,100765.58
2017-11-26T02:40:29.799Z,100773.94
2017-11-26T02:45:28.353Z,100780.95
2017-11-26T02:47:54.185Z,100775.11
2017-11-26T02:50:19.997Z,100768.25
2017-11-26T02:52:45.885Z,100780.27
2017-11-26T02:55:11.713Z,100775.47
2017-11-26T02:57:37.514Z,100784.14
2017-11-26T03:00:03.597Z,100777.72
2017-11-26T03:02:30.099Z,100780.73
2017-11-26T03:04:55.888Z,100782.61
2017-11-26T03:07:22.586Z,100774.45
2017-11-26T03:09:48.394Z,100777.58
2017-11-26T03:12:14.188Z,100785.96
2017-11-26T03:14:39.988Z,100781.52
2017-11-26T03:17:05.807Z,100783.62
2017-11-26T03:19:32.708Z,100778.45
2017-11-26T03:21:58.535Z,100780.00
2017-11-26T03:24:24.365Z,100774.23
2017-11-26T03:26:50.219Z,100789.91
2017-11-26T03:29:16.043Z,100790.34
2017-11-26T03:31:42.707Z,100791.84
2017-11-26T03:34:08.943Z,100787.34
2017-11-26T03:36:34.957Z,100783.12
2017-11-26T03:39:00.769Z,100785.38
2017-11-26T03:41:26.672Z,100777.96
2017-11-26T03:43:53.068Z,100774.38
2017-11-26T03:46:18.869Z,100775.82
2017-11-26T03:48:44.972Z,100769.70
2017-11-26T03:51:10.768Z,100770.22
2017-11-26T03:53:36.548Z,100774.81
2017-11-26T03:56:02.739Z,100774.45
2017-11-26T03:58:28.528Z,100775.75
2017-11-26T04:00:54.357Z,100774.38
2017-11-26T04:03:20.159Z,100765.34
2017-11-26T04:05:45.968Z,100771.55
2017-11-26T04:08:11.747Z,100771.76
2017-11-26T04:10:37.570Z,100770.67
2017-11-26T04:13:03.377Z,100773.57
2017-11-26T04:15:29.182Z,100765.86
2017-11-26T04:17:55.039Z,100770.80
2017-11-26T04:20:20.846Z,100771.91
2017-11-26T04:22:46.646Z,100771.02
2017-11-26T04:25:12.471Z,100772.55
2017-11-26T04:27:38.288Z,100769.54
2017-11-26T04:30:04.117Z,100770.57
2017-11-26T04:32:30.322Z,100764.52
2017-11-26T04:34:56.095Z,100756.95
2017-11-26T04:37:21.889Z,100759.00
2017-11-26T04:39:47.707Z,100768.77
2017-11-26T04:42:13.508Z,100763.81
2017-11-26T04:44:39.300Z,100768.03
2017-11-26T04:47:05.126Z,100758.35
2017-11-26T04:49:30.925Z,100742.23
2017-11-26T04:51:56.728Z,100748.73
2017-11-26T04:54:22.526Z,100750.70
2017-11-26T04:56:48.307Z,100750.84
2017-11-26T04:59:14.435Z,100752.14
2017-11-26T05:01:40.254Z,100769.78
2017-11-26T05:04:06.067Z,100773.22
2017-11-26T05:06:31.877Z,100774.65
2017-11-26T05:08:57.681Z,100762.87
2017-11-26T05:11:23.482Z,100760.98
2017-11-26T05:13:49.320Z,100770.38
2017-11-26T05:16:15.110Z,100769.94
2017-11-26T05:18:40.905Z,100780.44
2017-11-26T05:21:06.988Z,100785.09
2017-11-26T05:23:32.810Z,100793.77
2017-11-26T05:25:58.617Z,100778.81
2017-11-26T05:28:24.416Z,100778.31
2017-11-26T05:30:50.208Z,100780.06
2017-11-26T05:33:16.013Z,100780.52
2017-11-26T05:35:41.824Z,100780.50
2017-11-26T05:38:08.059Z,100779.57
2017-11-26T05:40:34.159Z,100779.05
2017-11-26T05:42:59.981Z,100780.80
2017-11-26T05:45:25.804Z,100781.60
2017-11-26T05:47:51.642Z,100778.73
2017-11-26T05:50:17.512Z,100770.57
2017-11-26T05:52:43.318Z,100768.81
2017-11-26T05:55:09.100Z,100775.22
2017-11-26T05:57:34.912Z,100765.05
2017-11-26T06:00:00.735Z,100770.51
2017-11-26T06:02:26.556Z,100758.33
2017-11-26T06:04:52.363Z,100760.75
2017-11-26T06:07:18.164Z,100764.15
2017-11-26T06:09:43.983Z,100765.76
2017-11-26T06:12:10.712Z,100765.10
2017-11-26T06:14:36.521Z,100767.80
2017-11-26T06:17:02.340Z,100757.06
2017-11-26T06:19:28.361Z,100757.38
2017-11-26T06:21:54.149Z,100763.77
2017-11-26T06:24:19.940Z,100769.11
2017-11-26T06:26:45.792Z,100765.16
2017-11-26T06:29:11.580Z,100775.29
2017-11-26T06:31:37.385Z,100773.04
2017-11-26T06:34:03.589Z,100775.99
2017-11-26T06:36:29.394Z,100777.65
2017-11-26T06:38:55.188Z,100775.89
2017-11-26T06:41:21.008Z,100777.70
2017-11-26T06:43:46.849Z,100780.27
2017-11-26T06:46:12.660Z,100781.73
2017-11-26T06:48:38.769Z,100787.21
2017-11-26T06:51:04.552Z,100785.67
2017-11-26T06:53:30.347Z,100789.98
2017-11-26T06:55:56.183Z,100787.88
2017-11-26T06:58:21.995Z,100784.84
2017-11-26T07:00:47.796Z,100800.15
2017-11-26T07:03:13.622Z,100805.17
2017-11-26T07:05:39.444Z,100804.67
2017-11-26T07:08:05.250Z,100814.66
2017-11-26T07:10:31.105Z,100815.75
2017-11-26T07:12:56.911Z,100824.27
2017-11-26T07:15:22.684Z,100820.97
2017-11-26T07:17:48.490Z,100831.18
2017-11-26T07:20:14.276Z,100836.36
2017-11-26T07:22:40.092Z,100837.75
2017-11-26T07:25:05.884Z,100834.84
2017-11-26T07:27:31.687Z,100840.79
2017-11-26T07:29:57.524Z,100844.16
2017-11-26T07:32:23.341Z,100842.26
2017-11-26T07:34:49.130Z,100847.44
2017-11-26T07:37:14.952Z,100843.44
2017-11-26T07:39:40.744Z,100845.70
2017-11-26T07:42:06.538Z,100845.50
2017-11-26T07:44:32.522Z,100844.75
2017-11-26T07:46:58.327Z,100846.09
2017-11-26T07:49:24.118Z,100847.02
2017-11-26T07:51:49.934Z,100840.44
2017-11-26T07:54:15.732Z,100839.00
2017-11-26T07:56:41.527Z,100836.01
2017-11-26T07:59:07.335Z,100838.00
2017-11-26T08:01:33.128Z,100846.36
2017-11-26T08:03:58.923Z,100854.14
2017-11-26T08:06:24.712Z,100849.04
2017-11-26T08:08:50.491Z,100851.27
2017-11-26T08:11:16.326Z,100843.27
2017-11-26T08:13:42.120Z,100843.56
2017-11-26T08:16:07.929Z,100849.47
2017-11-26T08:18:36.227Z,100851.19
2017-11-26T08:21:02.021Z,100839.75
2017-11-26T08:23:27.809Z,100848.80
2017-11-26T08:25:53.997Z,100849.45
2017-11-26T08:28:19.811Z,100840.63
2017-11-26T08:30:45.615Z,100838.14
2017-11-26T08:33:11.747Z,100843.95
2017-11-26T08:35:38.287Z,100845.06
2017-11-26T08:38:04.828Z,100837.77
2017-11-26T08:40:31.391Z,100847.59
2017-11-26T08:42:57.552Z,100854.37
2017-11-26T08:45:23.416Z,100876.42
2017-11-26T08:47:49.347Z,100862.62
2017-11-26T08:50:15.336Z,100867.87
2017-11-26T08:52:41.805Z,100869.84
2017-11-26T08:55:08.170Z,100867.06
2017-11-26T08:57:34.684Z,100861.88
2017-11-26T09:00:01.640Z,100866.34
2017-11-26T09:02:27.863Z,100860.91
2017-11-26T09:04:53.872Z,100852.58
2017-11-26T09:07:30.016Z,100855.20
2017-11-26T09:09:56.629Z,100854.47
2017-11-26T09:12:23.111Z,100865.30
2017-11-26T09:14:49.682Z,100856.42
2017-11-26T09:17:16.067Z,100866.28
2017-11-26T09:19:42.411Z,100866.98
2017-11-26T09:22:08.555Z,100878.16
2017-11-26T09:24:34.452Z,100882.08
2017-11-26T09:27:00.658Z,100880.71
2017-11-26T09:29:26.471Z,100877.88
2017-11-26T09:31:52.636Z,100885.72
2017-11-26T09:34:19.022Z,100877.29
2017-11-26T09:36:45.576Z,100876.76
2017-11-26T09:39:11.914Z,100883.58
2017-11-26T09:41:37.981Z,100888.22
2017-11-26T09:44:03.878Z,100891.31
2017-11-26T09:46:29.813Z,100896.02
2017-11-26T09:48:56.302Z,100881.84
2017-11-26T09:51:22.678Z,100888.70
2017-11-26T09:53:48.882Z,100883.33
2017-11-26T09:56:14.721Z,100880.86
2017-11-26T09:58:41.906Z,100879.44
2017-11-26T10:01:07.994Z,100885.97
2017-11-26T10:03:33.825Z,100880.05
2017-11-26T10:06:00.015Z,100884.25
2017-11-26T10:08:26.535Z,100875.19
2017-11-26T10:10:52.949Z,100878.53
2017-11-26T10:13:18.814Z,100873.63
2017-11-26T10:15:44.889Z,100878.75
2017-11-26T10:18:11.368Z,100869.22
2017-11-26T10:20:38.405Z,100880.22
2017-11-26T10:23:05.045Z,100869.56
2017-11-26T10:25:31.585Z,100875.72
2017-11-26T10:27:58.061Z,100881.73
2017-11-26T10:30:24.542Z,100874.20
2017-11-26T10:32:51.140Z,100874.10
2017-11-26T10:35:18.432Z,100872.70
2017-11-26T10:37:46.841Z,100879.97
2017-11-26T10:40:13.896Z,100874.88
2017-11-26T10:42:43.512Z,100872.14
2017-11-26T10:45:10.360Z,100874.72
2017-11-26T10:47:37.103Z,100873.95
2017-11-26T10:50:04.777Z,100864.94
2017-11-26T10:52:30.732Z,100876.17
2017-11-26T10:54:56.583Z,100860.56
2017-11-26T10:57:22.405Z,100854.59
2017-11-26T10:59:48.517Z,100856.88
2017-11-26T11:02:14.397Z,100862.72
2017-11-26T11:04:40.190Z,100858.31
2017-11-26T11:07:06.093Z,100852.59
2017-11-26T11:09:33.282Z,100857.80
2017-11-26T11:11:59.794Z,100856.69
2017-11-26T11:14:25.696Z,100847.11
2017-11-26T11:16:51.669Z,100829.58
2017-11-26T11:19:18.026Z,100837.05
2017-11-26T11:21:44.236Z,100854.29
2017-11-26T11:24:10.111Z,100860.19
2017-11-26T11:26:35.895Z,100860.92
2017-11-26T11:29:02.785Z,100876.75
2017-11-26T11:31:29.605Z,100882.52
2017-11-26T11:33:56.377Z,100877.13
2017-11-26T11:36:23.417Z,100873.98
2017-11-26T11:38:50.160Z,100870.61
2017-11-26T11:41:16.365Z,100875.89
2017-11-26T11:43:42.241Z,100877.91
2017-11-26T11:46:08.386Z,100875.41
2017-11-26T11:48:34.807Z,100875.48
2017-11-26T11:51:01.677Z,100876.11
2017-11-26T11:53:28.260Z,100878.32
2017-11-26T11:55:55.156Z,100876.82
2017-11-26T11:58:22.694Z,100877.37
2017-11-26T12:00:49.640Z,100868.95
2017-11-26T12:03:16.279Z,100878.24
2017-11-26T12:05:42.961Z,100883.44
2017-11-26T12:08:09.750Z,100880.96
2017-11-26T12:10:36.016Z,100882.09
2017-11-26T12:13:02.099Z,100882.05
2017-11-26T12:15:28.167Z,100875.55
2017-11-26T12:17:54.480Z,100879.58
2017-11-26T12:20:21.068Z,100875.31
2017-11-26T12:22:47.785Z,100889.53
2017-11-26T12:25:14.845Z,100887.67
2017-11-26T12:27:41.630Z,100887.23
2017-11-26T12:30:08.427Z,100885.09
2017-11-26T12:32:35.344Z,100884.55
2017-11-26T12:35:02.182Z,100893.59
2017-11-26T12:37:28.063Z,100885.14
2017-11-26T12:39:54.091Z,100887.20
2017-11-26T12:42:20.443Z,100890.50
2017-11-26T12:44:47.108Z,100884.81
2017-11-26T12:47:13.085Z,100879.48
2017-11-26T12:49:39.743Z,100892.01
2017-11-26T12:52:05.908Z,100895.86
2017-11-26T12:54:32.348Z,100888.02
2017-11-26T12:56:59.263Z,100890.84
2017-11-26T12:59:25.131Z,100901.44
2017-11-26T13:01:52.792Z,100897.22
2017-11-26T13:04:19.284Z,100897.12
2017-11-26T13:06:45.173Z,100900.78
2017-11-26T13:09:11.706Z,100911.00
2017-11-26T13:11:38.138Z,100912.52
2017-11-26T13:14:04.075Z,100902.73
2017-11-26T13:16:31.018Z,100908.89
2017-11-26T13:18:56.903Z,100907.69
2017-11-26T13:21:22.729Z,100908.34
2017-11-26T13:23:48.647Z,100910.08
2017-11-26T13:26:14.503Z,100914.62
2017-11-26T13:28:40.367Z,100910.03
2017-11-26T13:31:06.236Z,100920.31
2017-11-26T13:33:32.102Z,100928.20
2017-11-26T13:35:57.994Z,100926.16
2017-11-26T13:38:23.937Z,100917.17
2017-11-26T13:40:49.944Z,100928.33
2017-11-26T13:43:15.898Z,100938.00
2017-11-26T13:45:41.745Z,100934.22
2017-11-26T13:48:07.572Z,100932.61
2017-11-26T13:50:33.592Z,100928.20
2017-11-26T13:53:00.394Z,100929.09
2017-11-26T13:55:26.987Z,100929.46
2017-11-26T13:57:53.047Z,100936.16
2017-11-26T14:00:33.503Z,100939.50
2017-11-26T14:03:16.974Z,100938.25
2017-11-26T14:05:56.562Z,100936.61
2017-11-26T14:08:38.615Z,100932.15
2017-11-26T14:11:18.632Z,100935.71
2017-11-26T14:13:57.646Z,100943.81
2017-11-26T14:16:38.105Z,100933.48
2017-11-26T14:19:19.031Z,100939.71
2017-11-26T14:24:42.890Z,100942.40
2017-11-26T14:27:10.709Z,100948.04
2017-11-26T14:29:36.609Z,100947.17
2017-11-26T14:32:03.585Z,100940.95
2017-11-26T14:34:30.075Z,100941.81
2017-11-26T14:36:57.213Z,100948.61
2017-11-26T14:39:23.757Z,100950.80
2017-11-26T14:41:49.743Z,100955.16
2017-11-26T14:44:16.349Z,100957.63
2017-11-26T14:46:56.559Z,100947.69
2017-11-26T14:49:29.941Z,100955.28
2017-11-26T14:52:11.106Z,100948.45
2017-11-26T14:54:52.620Z,100938.03
2017-11-26T14:57:24.646Z,100951.81
2017-11-26T15:00:05.502Z,100947.78
2017-11-26T15:05:26.314Z,100954.22
2017-11-26T15:07:52.820Z,100952.88
2017-11-26T15:10:18.675Z,100964.45
2017-11-26T15:12:44.555Z,100968.38
2017-11-26T15:15:10.932Z,100969.86
2017-11-26T15:17:36.788Z,100973.95
2017-11-26T15:20:03.593Z,100969.53
2017-11-26T15:22:29.528Z,100970.39
2017-11-26T15:24:55.385Z,100977.23
2017-11-26T15:27:21.212Z,100973.23
2017-11-26T15:29:48.530Z,100965.53
2017-11-26T15:32:14.410Z,100966.25
2017-11-26T15:34:40.692Z,100973.23
2017-11-26T15:37:06.536Z,100978.23
2017-11-26T15:39:32.863Z,100976.66
2017-11-26T15:41:59.693Z,100977.61
2017-11-26T15:44:26.492Z,100981.14
2017-11-26T15:46:52.753Z,100982.11
2017-11-26T15:49:19.210Z,100985.45
2017-11-26T15:51:46.033Z,100981.83
2017-11-26T15:54:12.696Z,100984.21
2017-11-26T15:56:39.409Z,100987.91
2017-11-26T15:59:05.316Z,100986.33
2017-11-26T16:01:32.084Z,100991.00
2017-11-26T16:03:58.037Z,101002.66
2017-11-26T16:06:23.902Z,101000.41
2017-11-26T16:08:51.112Z,100995.91
2017-11-26T16:11:18.065Z,100996.98
2017-11-26T16:13:45.042Z,100997.64
2017-11-26T16:16:11.398Z,101001.63
2017-11-26T16:18:37.918Z,100999.63
2017-11-26T16:21:03.829Z,100999.37
2017-11-26T16:23:29.666Z,101006.13
2017-11-26T16:25:55.765Z,101000.34
2017-11-26T16:28:22.661Z,101006.63
2017-11-26T16:30:48.474Z,101015.44
2017-11-26T16:33:15.420Z,101014.56
2017-11-26T16:35:42.262Z,101017.55
2017-11-26T16:38:08.127Z,101012.97
2017-11-26T16:40:34.220Z,101007.88
2017-11-26T16:43:00.921Z,101011.02
2017-11-26T16:45:27.641Z,101010.37
2017-11-26T16:47:54.464Z,101013.61
2017-11-26T16:50:21.364Z,101022.98
2017-11-26T16:52:48.045Z,101023.36
2017-11-26T16:55:14.158Z,101018.80
2017-11-26T16:57:40.564Z,101026.45
2017-11-26T17:00:06.669Z,101023.26
2017-11-26T17:02:32.674Z,101026.45
2017-11-26T17:04:58.568Z,101030.52
2017-11-26T17:07:24.830Z,101030.23
2017-11-26T17:09:51.431Z,101036.63
2017-11-26T17:12:18.532Z,101039.12
2017-11-26T17:14:45.145Z,101025.70
2017-11-26T17:17:11.905Z,101022.98
2017-11-26T17:19:38.440Z,101032.63
2017-11-26T17:22:04.638Z,101043.51
2017-11-26T17:24:31.318Z,101040.03
2017-11-26T17:26:57.729Z,101038.13
2017-11-26T17:29:24.314Z,101042.02
2017-11-26T17:31:50.399Z,101034.27
2017-11-26T17:34:16.335Z,101036.70
2017-11-26T17:36:42.169Z,101043.37
2017-11-26T17:39:08.337Z,101044.55
2017-11-26T17:41:34.909Z,101036.65
2017-11-26T17:44:01.009Z,101037.74
2017-11-26T17:46:26.983Z,101039.04
2017-11-26T17:48:52.814Z,101045.47
2017-11-26T17:51:18.948Z,101044.86
2017-11-26T17:53:45.466Z,101039.84
2017-11-26T17:56:11.575Z,101046.09
2017-11-26T17:58:37.497Z,101046.94
2017-11-26T18:01:03.468Z,101044.41
2017-11-26T18:03:29.283Z,101045.33
2017-11-26T18:05:55.769Z,101053.95
2017-11-26T18:08:22.261Z,101048.91
2017-11-26T18:10:48.344Z,101045.91
2017-11-26T18:13:14.220Z,101060.69
2017-11-26T18:15:40.038Z,101060.70
2017-11-26T18:18:06.328Z,101061.02
2017-11-26T18:20:33.001Z,101062.61
2017-11-26T18:22:59.424Z,101062.48
2017-11-26T18:25:26.085Z,101060.92
2017-11-26T18:27:52.645Z,101060.63
2017-11-26T18:30:19.127Z,101064.05
2017-11-26T18:32:45.046Z,101071.31
2017-11-26T18:35:10.968Z,101066.06
2017-11-26T18:37:36.805Z,101075.78
2017-11-26T18:40:02.652Z,101074.66
2017-11-26T18:42:29.438Z,101075.35
2017-11-26T18:44:55.806Z,101073.58
2017-11-26T18:47:22.924Z,101067.25
2017-11-26T18:49:49.957Z,101081.48
2017-11-26T18:52:16.729Z,101071.34
2017-11-26T18:54:42.781Z,101074.36
2017-11-26T18:57:08.660Z,101075.29
2017-11-26T18:59:35.335Z,101081.98
2017-11-26T19:02:01.373Z,101086.28
2017-11-26T19:04:28.058Z,101091.97
2017-11-26T19:06:54.044Z,101095.92
2017-11-26T19:09:20.878Z,101090.70
2017-11-26T19:11:46.778Z,101085.13
2017-11-26T19:14:13.183Z,101102.83
2017-11-26T19:16:39.092Z,101102.77
2017-11-26T19:19:05.859Z,101107.96
2017-11-26T19:21:31.727Z,101103.45
2017-11-26T19:23:57.547Z,101107.34
2017-11-26T19:26:24.740Z,101112.00
2017-11-26T19:28:51.356Z,101112.41
2017-11-26T19:31:17.194Z,101113.03
2017-11-26T19:33:43.152Z,101117.67
2017-11-26T19:36:08.969Z,101112.48
2017-11-26T19:38:34.828Z,101122.83
2017-11-26T19:41:00.668Z,101114.84
2017-11-26T19:43:26.773Z,101122.64
2017-11-26T19:45:52.748Z,101118.13
2017-11-26T19:48:18.726Z,101119.88
2017-11-26T19:50:44.881Z,101126.47
2017-11-26T19:53:10.896Z,101126.69
2017-11-26T19:55:36.805Z,101124.66
2017-11-26T19:58:02.642Z,101131.45
2017-11-26T20:00:28.593Z,101130.54
2017-11-26T20:02:54.573Z,101134.61
2017-11-26T20:05:20.389Z,101139.21
2017-11-26T20:07:46.464Z,101130.17
2017-11-26T20:10:12.277Z,101142.11
2017-11-26T20:12:38.088Z,101138.31
2017-11-26T20:15:03.906Z,101135.98
2017-11-26T20:17:29.781Z,101145.13
2017-11-26T20:19:55.905Z,101148.01
2017-11-26T20:22:21.890Z,101144.84
2017-11-26T20:24:47.738Z,101143.38
2017-11-26T20:27:13.692Z,101140.48
2017-11-26T20:29:39.481Z,101138.88
2017-11-26T20:32:05.422Z,101146.17
2017-11-26T20:34:31.231Z,101141.81
2017-11-26T20:36:57.017Z,101141.46
2017-11-26T20:39:22.805Z,101142.12
2017-11-26T20:41:49.077Z,101140.46
2017-11-26T20:44:14.881Z,101139.00
2017-11-26T20:46:40.679Z,101141.16
2017-11-26T20:49:06.740Z,101142.31
2017-11-26T20:51:32.596Z,101146.77
2017-11-26T20:53:58.962Z,101144.03
2017-11-26T20:56:24.827Z,101141.03
2017-11-26T20:58:50.617Z,101132.78
2017-11-26T21:01:16.518Z,101143.69
2017-11-26T21:03:42.308Z,101139.59
2017-11-26T21:06:08.387Z,101150.25
2017-11-26T21:08:34.196Z,101146.88
2017-11-26T21:11:00.397Z,101145.56
2017-11-26T21:13:26.200Z,101146.74
2017-11-26T21:15:52.247Z,101142.50
2017-11-26T21:18:18.128Z,101138.52
2017-11-26T21:20:43.920Z,101141.63
2017-11-26T21:23:09.713Z,101145.67
2017-11-26T21:25:35.545Z,101146.36
2017-11-26T21:28:01.353Z,101149.07
2017-11-26T21:30:27.927Z,101151.70
2017-11-26T21:32:53.803Z,101145.05
2017-11-26T21:35:19.700Z,101143.97
2017-11-26T21:37:45.487Z,101135.53
2017-11-26T21:40:11.293Z,101145.28
2017-11-26T21:42:37.234Z,101130.09
2017-11-26T21:45:03.045Z,101133.27
2017-11-26T21:47:29.448Z,101129.89
2017-11-26T21:49:55.265Z,101133.78
2017-11-26T21:52:21.471Z,101138.84
2017-11-26T21:54:47.297Z,101150.53
2017-11-26T21:57:13.689Z,101146.94
2017-11-26T21:59:39.484Z,101135.17
2017-11-26T22:02:05.521Z,101153.38
2017-11-26T22:04:31.322Z,101150.67
2017-11-26T22:06:57.108Z,101159.60
2017-11-26T22:09:23.048Z,101143.73
2017-11-26T22:11:48.843Z,101149.00
2017-11-26T22:14:14.645Z,101149.50
2017-11-26T22:16:40.469Z,101150.22
2017-11-26T22:19:06.346Z,101162.00
2017-11-26T22:21:32.148Z,101160.98
2017-11-26T22:23:58.657Z,101156.67
2017-11-26T22:26:24.463Z,101156.14
2017-11-26T22:28:50.603Z,101157.38
2017-11-26T22:31:16.737Z,101157.53
2017-11-26T22:33:42.945Z,101158.77
2017-11-26T22:36:08.747Z,101152.97
2017-11-26T22:38:35.011Z,101160.51
2017-11-26T22:41:00.844Z,101157.54
2017-11-26T22:43:27.014Z,101157.45
2017-11-26T22:45:52.874Z,101158.99
2017-11-26T22:48:18.695Z,101150.56
2017-11-26T22:50:44.657Z,101146.84
2017-11-26T22:53:10.452Z,101146.27
2017-11-26T22:55:36.276Z,101150.06
2017-11-26T22:58:02.106Z,101156.80
2017-11-26T23:00:28.093Z,101141.17
2017-11-26T23:02:53.971Z,101143.00
2017-11-26T23:05:19.774Z,101158.75
2017-11-26T23:07:45.577Z,101166.47
2017-11-26T23:10:11.402Z,101166.53
2017-11-26T23:12:37.704Z,101171.88
2017-11-26T23:15:03.498Z,101166.91
2017-11-26T23:17:29.646Z,101150.91
2017-11-26T23:19:55.416Z,101162.46
2017-11-26T23:22:21.344Z,101166.91
2017-11-26T23:24:47.492Z,101163.84
2017-11-26T23:27:13.290Z,101143.81
2017-11-26T23:29:39.090Z,101159.75
2017-11-26T23:32:04.911Z,101163.77
2017-11-26T23:34:31.096Z,101162.00
2017-11-26T23:36:56.889Z,101165.61
2017-11-26T23:39:22.836Z,101167.50
2017-11-26T23:41:48.664Z,101165.31
2017-11-26T23:44:14.621Z,101164.88
2017-11-26T23:46:40.450Z,101167.05
2017-11-26T23:49:06.592Z,101169.96
2017-11-26T23:51:32.413Z,101169.09
2017-11-26T23:53:58.664Z,101167.27
2017-11-26T23:56:24.621Z,101170.78
2017-11-26T23:58:50.777Z,101166.24
